Airport View

Enter AWOS ICAO identifier for current METAR.

ex. KFNL

KBTP 101456Z AUTO 28004KT 10SM CLR 28/19 A3012 RMK AO2 SLP194 T02780194 58001

10 Aug 2020 15:38

Frequency: 121.450

Phone: 724-586-6434

Other Area AWOS: KPJC - 42PN - KBVI - KPIT

TAF KBVI 101124Z 1012/1112 20003KT P6SM SKC